sensor_id;sensor_type;location;lat;lon;timestamp;P1;durP1;ratioP1;P2;durP2;ratioP2
71187;SDS011;58893;53.130;8.158;2023-02-14T00:01:41;23.23;;;8.90;;
71187;SDS011;58893;53.130;8.158;2023-02-14T00:04:07;24.93;;;9.90;;
71187;SDS011;58893;53.130;8.158;2023-02-14T00:06:33;31.63;;;11.10;;
71187;SDS011;58893;53.130;8.158;2023-02-14T00:09:03;28.27;;;9.63;;
71187;SDS011;58893;53.130;8.158;2023-02-14T00:11:30;36.00;;;11.73;;
71187;SDS011;58893;53.130;8.158;2023-02-14T00:13:56;41.27;;;14.27;;
71187;SDS011;58893;53.130;8.158;2023-02-14T00:16:40;46.20;;;15.30;;
71187;SDS011;58893;53.130;8.158;2023-02-14T00:19:06;41.40;;;15.20;;
71187;SDS011;58893;53.130;8.158;2023-02-14T00:21:34;36.10;;;14.40;;
71187;SDS011;58893;53.130;8.158;2023-02-14T00:24:01;34.60;;;13.70;;
71187;SDS011;58893;53.130;8.158;2023-02-14T00:26:32;28.37;;;12.13;;
71187;SDS011;58893;53.130;8.158;2023-02-14T00:28:57;36.87;;;12.27;;
71187;SDS011;58893;53.130;8.158;2023-02-14T00:31:23;37.60;;;13.47;;
71187;SDS011;58893;53.130;8.158;2023-02-14T00:33:49;27.83;;;11.80;;
71187;SDS011;58893;53.130;8.158;2023-02-14T00:36:14;31.50;;;11.07;;
71187;SDS011;58893;53.130;8.158;2023-02-14T00:38:43;25.33;;;10.17;;
71187;SDS011;58893;53.130;8.158;2023-02-14T00:41:09;30.87;;;12.60;;
71187;SDS011;58893;53.130;8.158;2023-02-14T00:43:43;32.87;;;12.13;;
71187;SDS011;58893;53.130;8.158;2023-02-14T00:46:16;25.40;;;10.20;;
71187;SDS011;58893;53.130;8.158;2023-02-14T00:48:46;22.10;;;9.23;;
71187;SDS011;58893;53.130;8.158;2023-02-14T00:51:13;23.50;;;10.17;;
71187;SDS011;58893;53.130;8.158;2023-02-14T00:53:39;30.77;;;10.40;;
71187;SDS011;58893;53.130;8.158;2023-02-14T00:56:05;20.57;;;10.87;;
71187;SDS011;58893;53.130;8.158;2023-02-14T00:58:30;28.53;;;10.60;;
71187;SDS011;58893;53.130;8.158;2023-02-14T01:00:56;17.73;;;9.40;;
71187;SDS011;58893;53.130;8.158;2023-02-14T01:03:22;23.63;;;10.60;;
71187;SDS011;58893;53.130;8.158;2023-02-14T01:05:48;26.33;;;10.20;;
71187;SDS011;58893;53.130;8.158;2023-02-14T01:08:14;21.63;;;9.70;;
71187;SDS011;58893;53.130;8.158;2023-02-14T01:10:41;19.27;;;9.87;;
71187;SDS011;58893;53.130;8.158;2023-02-14T01:13:07;21.57;;;9.70;;
71187;SDS011;58893;53.130;8.158;2023-02-14T01:15:37;30.33;;;10.77;;
71187;SDS011;58893;53.130;8.158;2023-02-14T01:18:07;25.70;;;9.70;;
71187;SDS011;58893;53.130;8.158;2023-02-14T01:20:33;18.77;;;9.00;;
71187;SDS011;58893;53.130;8.158;2023-02-14T01:22:59;22.27;;;10.17;;
71187;SDS011;58893;53.130;8.158;2023-02-14T01:25:25;25.20;;;9.43;;
71187;SDS011;58893;53.130;8.158;2023-02-14T01:27:51;26.60;;;10.40;;
71187;SDS011;58893;53.130;8.158;2023-02-14T01:30:16;17.87;;;8.33;;
71187;SDS011;58893;53.130;8.158;2023-02-14T01:32:42;20.63;;;9.40;;
71187;SDS011;58893;53.130;8.158;2023-02-14T01:35:08;20.73;;;8.53;;
71187;SDS011;58893;53.130;8.158;2023-02-14T01:37:34;21.77;;;9.40;;
71187;SDS011;58893;53.130;8.158;2023-02-14T01:40:00;18.40;;;7.87;;
71187;SDS011;58893;53.130;8.158;2023-02-14T01:42:26;16.00;;;7.70;;
71187;SDS011;58893;53.130;8.158;2023-02-14T01:44:54;18.70;;;8.17;;
71187;SDS011;58893;53.130;8.158;2023-02-14T01:47:21;19.27;;;9.13;;
71187;SDS011;58893;53.130;8.158;2023-02-14T01:49:50;17.00;;;8.73;;
71187;SDS011;58893;53.130;8.158;2023-02-14T01:52:19;21.30;;;9.00;;
71187;SDS011;58893;53.130;8.158;2023-02-14T01:54:51;17.37;;;8.90;;
71187;SDS011;58893;53.130;8.158;2023-02-14T01:57:33;18.53;;;9.77;;
71187;SDS011;58893;53.130;8.158;2023-02-14T02:00:04;16.40;;;8.50;;
71187;SDS011;58893;53.130;8.158;2023-02-14T02:02:50;18.87;;;9.23;;
71187;SDS011;58893;53.130;8.158;2023-02-14T02:05:16;20.13;;;8.87;;
71187;SDS011;58893;53.130;8.158;2023-02-14T02:07:47;16.63;;;8.67;;
71187;SDS011;58893;53.130;8.158;2023-02-14T02:10:17;17.30;;;8.40;;
71187;SDS011;58893;53.130;8.158;2023-02-14T02:12:43;21.33;;;8.93;;
71187;SDS011;58893;53.130;8.158;2023-02-14T02:15:09;16.57;;;8.50;;
71187;SDS011;58893;53.130;8.158;2023-02-14T02:20:27;20.40;;;9.90;;
71187;SDS011;58893;53.130;8.158;2023-02-14T02:43:04;16.23;;;8.40;;
71187;SDS011;58893;53.130;8.158;2023-02-14T02:48:34;24.93;;;8.83;;
71187;SDS011;58893;53.130;8.158;2023-02-14T02:51:09;22.70;;;10.00;;
71187;SDS011;58893;53.130;8.158;2023-02-14T02:54:08;23.03;;;10.17;;
71187;SDS011;58893;53.130;8.158;2023-02-14T02:56:44;19.80;;;9.70;;
71187;SDS011;58893;53.130;8.158;2023-02-14T02:59:19;18.43;;;8.40;;
71187;SDS011;58893;53.130;8.158;2023-02-14T03:04:22;20.80;;;9.70;;
71187;SDS011;58893;53.130;8.158;2023-02-14T03:07:08;19.27;;;9.10;;
71187;SDS011;58893;53.130;8.158;2023-02-14T03:09:56;19.43;;;9.77;;
71187;SDS011;58893;53.130;8.158;2023-02-14T03:17:40;24.10;;;9.70;;
71187;SDS011;58893;53.130;8.158;2023-02-14T03:20:52;23.13;;;8.83;;
71187;SDS011;58893;53.130;8.158;2023-02-14T03:23:34;23.23;;;10.10;;
71187;SDS011;58893;53.130;8.158;2023-02-14T03:28:48;26.40;;;10.53;;
71187;SDS011;58893;53.130;8.158;2023-02-14T03:31:33;22.17;;;10.00;;
71187;SDS011;58893;53.130;8.158;2023-02-14T03:34:21;21.33;;;9.87;;
71187;SDS011;58893;53.130;8.158;2023-02-14T03:36:54;21.70;;;8.80;;
71187;SDS011;58893;53.130;8.158;2023-02-14T03:42:27;20.13;;;9.70;;
71187;SDS011;58893;53.130;8.158;2023-02-14T03:45:15;21.17;;;8.87;;
71187;SDS011;58893;53.130;8.158;2023-02-14T03:47:46;25.03;;;10.50;;
71187;SDS011;58893;53.130;8.158;2023-02-14T03:50:16;23.60;;;11.00;;
71187;SDS011;58893;53.130;8.158;2023-02-14T03:52:44;27.10;;;10.37;;
71187;SDS011;58893;53.130;8.158;2023-02-14T03:55:13;25.30;;;11.33;;
71187;SDS011;58893;53.130;8.158;2023-02-14T04:00:32;21.90;;;9.53;;
71187;SDS011;58893;53.130;8.158;2023-02-14T04:03:03;22.83;;;9.97;;
71187;SDS011;58893;53.130;8.158;2023-02-14T04:05:35;25.27;;;10.60;;
71187;SDS011;58893;53.130;8.158;2023-02-14T04:08:06;24.80;;;10.03;;
71187;SDS011;58893;53.130;8.158;2023-02-14T04:10:32;22.80;;;9.17;;
71187;SDS011;58893;53.130;8.158;2023-02-14T04:12:58;26.83;;;10.30;;
71187;SDS011;58893;53.130;8.158;2023-02-14T04:15:23;19.43;;;9.57;;
71187;SDS011;58893;53.130;8.158;2023-02-14T04:17:49;26.73;;;10.77;;
71187;SDS011;58893;53.130;8.158;2023-02-14T04:20:33;19.23;;;9.47;;
71187;SDS011;58893;53.130;8.158;2023-02-14T04:22:58;25.63;;;10.60;;
71187;SDS011;58893;53.130;8.158;2023-02-14T04:25:24;23.73;;;9.90;;
71187;SDS011;58893;53.130;8.158;2023-02-14T04:27:50;26.10;;;10.43;;
71187;SDS011;58893;53.130;8.158;2023-02-14T04:30:15;21.83;;;11.20;;
71187;SDS011;58893;53.130;8.158;2023-02-14T04:32:42;25.77;;;10.80;;
71187;SDS011;58893;53.130;8.158;2023-02-14T04:35:08;30.00;;;10.93;;
71187;SDS011;58893;53.130;8.158;2023-02-14T04:37:34;21.53;;;8.77;;
71187;SDS011;58893;53.130;8.158;2023-02-14T04:39:59;21.60;;;9.60;;
71187;SDS011;58893;53.130;8.158;2023-02-14T04:42:25;21.80;;;8.77;;
71187;SDS011;58893;53.130;8.158;2023-02-14T04:44:51;21.80;;;9.80;;
71187;SDS011;58893;53.130;8.158;2023-02-14T04:47:16;28.27;;;11.07;;
71187;SDS011;58893;53.130;8.158;2023-02-14T04:49:42;29.70;;;10.20;;
71187;SDS011;58893;53.130;8.158;2023-02-14T04:52:08;22.00;;;9.90;;
71187;SDS011;58893;53.130;8.158;2023-02-14T04:54:33;25.80;;;10.10;;
71187;SDS011;58893;53.130;8.158;2023-02-14T04:56:59;22.10;;;9.60;;
71187;SDS011;58893;53.130;8.158;2023-02-14T04:59:25;26.80;;;11.30;;
71187;SDS011;58893;53.130;8.158;2023-02-14T05:01:51;24.23;;;10.10;;
71187;SDS011;58893;53.130;8.158;2023-02-14T05:04:17;21.10;;;9.50;;
71187;SDS011;58893;53.130;8.158;2023-02-14T05:06:42;27.67;;;10.80;;
71187;SDS011;58893;53.130;8.158;2023-02-14T05:09:08;21.57;;;9.60;;
71187;SDS011;58893;53.130;8.158;2023-02-14T05:11:34;19.33;;;8.53;;
71187;SDS011;58893;53.130;8.158;2023-02-14T05:13:59;22.27;;;10.17;;
71187;SDS011;58893;53.130;8.158;2023-02-14T05:16:25;21.80;;;10.37;;
71187;SDS011;58893;53.130;8.158;2023-02-14T05:18:51;34.80;;;11.87;;
71187;SDS011;58893;53.130;8.158;2023-02-14T05:21:16;25.33;;;10.30;;
71187;SDS011;58893;53.130;8.158;2023-02-14T05:23:42;21.67;;;10.30;;
71187;SDS011;58893;53.130;8.158;2023-02-14T05:26:08;21.17;;;9.17;;
71187;SDS011;58893;53.130;8.158;2023-02-14T05:28:34;20.47;;;8.50;;
71187;SDS011;58893;53.130;8.158;2023-02-14T05:31:00;25.40;;;10.20;;
71187;SDS011;58893;53.130;8.158;2023-02-14T05:33:25;19.50;;;8.67;;
71187;SDS011;58893;53.130;8.158;2023-02-14T05:35:52;24.67;;;10.40;;
71187;SDS011;58893;53.130;8.158;2023-02-14T05:38:18;22.47;;;8.90;;
71187;SDS011;58893;53.130;8.158;2023-02-14T05:40:43;19.63;;;9.37;;
71187;SDS011;58893;53.130;8.158;2023-02-14T05:43:09;19.43;;;9.20;;
71187;SDS011;58893;53.130;8.158;2023-02-14T05:45:35;23.47;;;9.43;;
71187;SDS011;58893;53.130;8.158;2023-02-14T05:48:01;23.03;;;8.30;;
71187;SDS011;58893;53.130;8.158;2023-02-14T05:50:27;20.10;;;8.53;;
71187;SDS011;58893;53.130;8.158;2023-02-14T05:52:53;19.60;;;9.53;;
71187;SDS011;58893;53.130;8.158;2023-02-14T05:55:19;26.43;;;10.20;;
71187;SDS011;58893;53.130;8.158;2023-02-14T05:57:45;23.40;;;9.00;;
71187;SDS011;58893;53.130;8.158;2023-02-14T06:00:11;18.87;;;8.00;;
71187;SDS011;58893;53.130;8.158;2023-02-14T06:02:37;25.53;;;9.40;;
71187;SDS011;58893;53.130;8.158;2023-02-14T06:05:03;16.67;;;7.60;;
71187;SDS011;58893;53.130;8.158;2023-02-14T06:07:29;18.00;;;7.73;;
71187;SDS011;58893;53.130;8.158;2023-02-14T06:09:55;18.50;;;6.73;;
71187;SDS011;58893;53.130;8.158;2023-02-14T06:12:20;14.83;;;6.97;;
71187;SDS011;58893;53.130;8.158;2023-02-14T06:14:46;12.37;;;5.40;;
71187;SDS011;58893;53.130;8.158;2023-02-14T06:17:11;14.30;;;6.50;;
71187;SDS011;58893;53.130;8.158;2023-02-14T06:19:37;11.90;;;6.80;;
71187;SDS011;58893;53.130;8.158;2023-02-14T06:22:03;16.07;;;7.23;;
71187;SDS011;58893;53.130;8.158;2023-02-14T06:24:29;11.80;;;5.60;;
71187;SDS011;58893;53.130;8.158;2023-02-14T06:26:54;15.33;;;7.07;;
71187;SDS011;58893;53.130;8.158;2023-02-14T06:29:20;22.37;;;8.40;;
71187;SDS011;58893;53.130;8.158;2023-02-14T06:31:45;15.50;;;7.13;;
71187;SDS011;58893;53.130;8.158;2023-02-14T06:34:11;13.57;;;6.23;;
71187;SDS011;58893;53.130;8.158;2023-02-14T06:36:37;9.30;;;5.57;;
71187;SDS011;58893;53.130;8.158;2023-02-14T06:39:02;15.27;;;6.77;;
71187;SDS011;58893;53.130;8.158;2023-02-14T06:41:28;14.13;;;6.77;;
71187;SDS011;58893;53.130;8.158;2023-02-14T06:43:54;15.43;;;6.33;;
71187;SDS011;58893;53.130;8.158;2023-02-14T06:46:19;10.33;;;6.03;;
71187;SDS011;58893;53.130;8.158;2023-02-14T06:48:45;20.77;;;9.00;;
71187;SDS011;58893;53.130;8.158;2023-02-14T06:51:11;28.03;;;11.47;;
71187;SDS011;58893;53.130;8.158;2023-02-14T06:53:37;23.20;;;11.10;;
71187;SDS011;58893;53.130;8.158;2023-02-14T06:56:03;32.53;;;12.47;;
71187;SDS011;58893;53.130;8.158;2023-02-14T06:58:29;35.23;;;12.73;;
71187;SDS011;58893;53.130;8.158;2023-02-14T07:00:55;38.33;;;13.87;;
71187;SDS011;58893;53.130;8.158;2023-02-14T07:03:22;35.90;;;12.27;;
71187;SDS011;58893;53.130;8.158;2023-02-14T07:05:47;24.13;;;10.90;;
71187;SDS011;58893;53.130;8.158;2023-02-14T07:08:13;20.67;;;9.43;;
71187;SDS011;58893;53.130;8.158;2023-02-14T07:10:39;28.07;;;11.90;;
71187;SDS011;58893;53.130;8.158;2023-02-14T07:13:04;30.80;;;12.90;;
71187;SDS011;58893;53.130;8.158;2023-02-14T07:15:30;18.47;;;8.87;;
71187;SDS011;58893;53.130;8.158;2023-02-14T07:17:56;21.53;;;9.50;;
71187;SDS011;58893;53.130;8.158;2023-02-14T07:20:22;28.50;;;11.83;;
71187;SDS011;58893;53.130;8.158;2023-02-14T07:22:48;37.37;;;14.63;;
71187;SDS011;58893;53.130;8.158;2023-02-14T07:25:13;26.43;;;12.20;;
71187;SDS011;58893;53.130;8.158;2023-02-14T07:27:39;22.20;;;10.30;;
71187;SDS011;58893;53.130;8.158;2023-02-14T07:30:05;24.80;;;9.57;;
71187;SDS011;58893;53.130;8.158;2023-02-14T07:32:32;24.03;;;9.00;;
71187;SDS011;58893;53.130;8.158;2023-02-14T07:34:57;22.40;;;10.10;;
71187;SDS011;58893;53.130;8.158;2023-02-14T07:37:23;21.40;;;9.43;;
71187;SDS011;58893;53.130;8.158;2023-02-14T07:39:48;19.80;;;8.70;;
71187;SDS011;58893;53.130;8.158;2023-02-14T07:42:14;23.13;;;9.40;;
71187;SDS011;58893;53.130;8.158;2023-02-14T07:44:40;24.17;;;10.40;;
71187;SDS011;58893;53.130;8.158;2023-02-14T07:47:06;31.63;;;11.43;;
71187;SDS011;58893;53.130;8.158;2023-02-14T07:49:34;25.37;;;9.80;;
71187;SDS011;58893;53.130;8.158;2023-02-14T07:52:00;26.70;;;10.97;;
71187;SDS011;58893;53.130;8.158;2023-02-14T07:54:27;26.57;;;10.90;;
71187;SDS011;58893;53.130;8.158;2023-02-14T07:56:52;26.13;;;10.80;;
71187;SDS011;58893;53.130;8.158;2023-02-14T07:59:18;32.13;;;13.43;;
71187;SDS011;58893;53.130;8.158;2023-02-14T08:01:44;32.13;;;11.83;;
71187;SDS011;58893;53.130;8.158;2023-02-14T08:04:09;33.10;;;14.10;;
71187;SDS011;58893;53.130;8.158;2023-02-14T08:06:37;32.63;;;11.70;;
71187;SDS011;58893;53.130;8.158;2023-02-14T08:09:04;36.30;;;13.70;;
71187;SDS011;58893;53.130;8.158;2023-02-14T08:11:29;30.60;;;11.70;;
71187;SDS011;58893;53.130;8.158;2023-02-14T08:14:13;34.77;;;12.50;;
71187;SDS011;58893;53.130;8.158;2023-02-14T08:16:39;29.30;;;11.67;;
71187;SDS011;58893;53.130;8.158;2023-02-14T08:19:05;35.00;;;13.93;;
71187;SDS011;58893;53.130;8.158;2023-02-14T08:21:31;29.93;;;13.40;;
71187;SDS011;58893;53.130;8.158;2023-02-14T08:23:56;30.10;;;12.93;;
71187;SDS011;58893;53.130;8.158;2023-02-14T08:26:22;31.77;;;12.63;;
71187;SDS011;58893;53.130;8.158;2023-02-14T08:28:48;37.10;;;14.50;;
71187;SDS011;58893;53.130;8.158;2023-02-14T08:31:21;29.40;;;12.43;;
71187;SDS011;58893;53.130;8.158;2023-02-14T08:33:49;31.07;;;13.13;;
71187;SDS011;58893;53.130;8.158;2023-02-14T08:36:15;29.80;;;13.13;;
71187;SDS011;58893;53.130;8.158;2023-02-14T08:38:42;32.47;;;12.97;;
71187;SDS011;58893;53.130;8.158;2023-02-14T08:41:09;35.70;;;13.93;;
71187;SDS011;58893;53.130;8.158;2023-02-14T08:43:35;41.20;;;15.37;;
71187;SDS011;58893;53.130;8.158;2023-02-14T08:46:01;35.80;;;12.50;;
71187;SDS011;58893;53.130;8.158;2023-02-14T08:48:27;28.87;;;12.27;;
71187;SDS011;58893;53.130;8.158;2023-02-14T08:50:52;33.30;;;12.97;;
71187;SDS011;58893;53.130;8.158;2023-02-14T08:53:18;40.13;;;13.43;;
71187;SDS011;58893;53.130;8.158;2023-02-14T08:55:46;28.47;;;12.27;;
71187;SDS011;58893;53.130;8.158;2023-02-14T08:58:12;30.63;;;12.83;;
71187;SDS011;58893;53.130;8.158;2023-02-14T09:00:38;36.70;;;12.07;;
71187;SDS011;58893;53.130;8.158;2023-02-14T09:03:04;36.27;;;14.73;;
71187;SDS011;58893;53.130;8.158;2023-02-14T09:05:30;24.93;;;11.27;;
71187;SDS011;58893;53.130;8.158;2023-02-14T09:07:56;29.33;;;12.90;;
71187;SDS011;58893;53.130;8.158;2023-02-14T09:10:22;33.00;;;12.37;;
71187;SDS011;58893;53.130;8.158;2023-02-14T09:12:49;28.37;;;12.90;;
71187;SDS011;58893;53.130;8.158;2023-02-14T09:15:14;30.90;;;11.47;;
71187;SDS011;58893;53.130;8.158;2023-02-14T09:17:40;27.40;;;12.70;;
71187;SDS011;58893;53.130;8.158;2023-02-14T09:20:07;29.20;;;12.40;;
71187;SDS011;58893;53.130;8.158;2023-02-14T09:22:34;25.87;;;11.07;;
71187;SDS011;58893;53.130;8.158;2023-02-14T09:25:00;25.93;;;12.30;;
71187;SDS011;58893;53.130;8.158;2023-02-14T09:27:26;30.90;;;12.57;;
71187;SDS011;58893;53.130;8.158;2023-02-14T09:29:52;26.10;;;12.43;;
71187;SDS011;58893;53.130;8.158;2023-02-14T09:32:18;25.97;;;11.63;;
71187;SDS011;58893;53.130;8.158;2023-02-14T09:34:43;28.13;;;11.80;;
71187;SDS011;58893;53.130;8.158;2023-02-14T09:37:27;25.73;;;10.73;;
71187;SDS011;58893;53.130;8.158;2023-02-14T09:39:54;31.63;;;13.27;;
71187;SDS011;58893;53.130;8.158;2023-02-14T09:45:16;23.33;;;11.00;;
71187;SDS011;58893;53.130;8.158;2023-02-14T09:50:46;28.30;;;12.73;;
71187;SDS011;58893;53.130;8.158;2023-02-14T09:56:03;21.40;;;9.83;;
71187;SDS011;58893;53.130;8.158;2023-02-14T10:01:25;24.80;;;11.70;;
71187;SDS011;58893;53.130;8.158;2023-02-14T10:07:05;28.03;;;11.00;;
71187;SDS011;58893;53.130;8.158;2023-02-14T10:10:06;26.23;;;12.90;;
71187;SDS011;58893;53.130;8.158;2023-02-14T10:13:12;29.17;;;12.00;;
71187;SDS011;58893;53.130;8.158;2023-02-14T10:16:01;29.70;;;10.93;;
71187;SDS011;58893;53.130;8.158;2023-02-14T10:18:48;26.57;;;11.10;;
71187;SDS011;58893;53.130;8.158;2023-02-14T10:21:35;25.67;;;11.77;;
71187;SDS011;58893;53.130;8.158;2023-02-14T10:26:49;30.00;;;12.83;;
71187;SDS011;58893;53.130;8.158;2023-02-14T10:29:17;27.53;;;11.50;;
71187;SDS011;58893;53.130;8.158;2023-02-14T10:31:48;30.47;;;12.27;;
71187;SDS011;58893;53.130;8.158;2023-02-14T10:37:31;28.83;;;12.40;;
71187;SDS011;58893;53.130;8.158;2023-02-14T10:43:38;30.87;;;13.27;;
71187;SDS011;58893;53.130;8.158;2023-02-14T10:46:11;34.47;;;13.17;;
71187;SDS011;58893;53.130;8.158;2023-02-14T10:51:14;29.37;;;12.30;;
71187;SDS011;58893;53.130;8.158;2023-02-14T10:59:07;32.27;;;14.13;;
71187;SDS011;58893;53.130;8.158;2023-02-14T11:01:46;29.60;;;13.37;;
71187;SDS011;58893;53.130;8.158;2023-02-14T11:04:13;34.33;;;14.00;;
71187;SDS011;58893;53.130;8.158;2023-02-14T11:06:40;32.37;;;13.77;;
71187;SDS011;58893;53.130;8.158;2023-02-14T11:09:08;38.20;;;14.70;;
71187;SDS011;58893;53.130;8.158;2023-02-14T11:16:48;36.83;;;14.10;;
71187;SDS011;58893;53.130;8.158;2023-02-14T11:21:44;30.17;;;14.17;;
71187;SDS011;58893;53.130;8.158;2023-02-14T11:32:06;32.00;;;14.33;;
71187;SDS011;58893;53.130;8.158;2023-02-14T11:34:35;29.80;;;13.20;;
71187;SDS011;58893;53.130;8.158;2023-02-14T11:37:14;38.60;;;15.47;;
71187;SDS011;58893;53.130;8.158;2023-02-14T11:39:40;32.17;;;12.87;;
71187;SDS011;58893;53.130;8.158;2023-02-14T11:42:08;32.80;;;12.90;;
71187;SDS011;58893;53.130;8.158;2023-02-14T11:44:37;24.83;;;12.40;;
71187;SDS011;58893;53.130;8.158;2023-02-14T11:47:24;30.07;;;13.30;;
71187;SDS011;58893;53.130;8.158;2023-02-14T11:49:55;34.13;;;13.40;;
71187;SDS011;58893;53.130;8.158;2023-02-14T11:52:26;29.80;;;13.53;;
71187;SDS011;58893;53.130;8.158;2023-02-14T11:54:54;29.13;;;13.03;;
71187;SDS011;58893;53.130;8.158;2023-02-14T11:59:47;37.63;;;14.00;;
71187;SDS011;58893;53.130;8.158;2023-02-14T12:04:45;29.20;;;13.70;;
71187;SDS011;58893;53.130;8.158;2023-02-14T12:07:18;31.90;;;12.93;;
71187;SDS011;58893;53.130;8.158;2023-02-14T12:10:04;26.17;;;13.57;;
71187;SDS011;58893;53.130;8.158;2023-02-14T12:12:33;32.53;;;14.10;;
71187;SDS011;58893;53.130;8.158;2023-02-14T12:23:46;30.27;;;12.17;;
71187;SDS011;58893;53.130;8.158;2023-02-14T12:31:38;27.10;;;12.20;;
71187;SDS011;58893;53.130;8.158;2023-02-14T12:34:04;33.07;;;14.20;;
71187;SDS011;58893;53.130;8.158;2023-02-14T13:07:15;32.33;;;13.17;;
71187;SDS011;58893;53.130;8.158;2023-02-14T13:10:03;27.07;;;13.70;;
71187;SDS011;58893;53.130;8.158;2023-02-14T13:13:08;25.90;;;12.97;;
71187;SDS011;58893;53.130;8.158;2023-02-14T13:15:43;27.03;;;12.60;;
71187;SDS011;58893;53.130;8.158;2023-02-14T13:18:16;24.27;;;13.00;;
71187;SDS011;58893;53.130;8.158;2023-02-14T13:20:56;29.00;;;13.77;;
71187;SDS011;58893;53.130;8.158;2023-02-14T13:23:27;27.10;;;12.87;;
71187;SDS011;58893;53.130;8.158;2023-02-14T13:28:54;31.77;;;14.80;;
71187;SDS011;58893;53.130;8.158;2023-02-14T13:31:27;30.90;;;12.97;;
71187;SDS011;58893;53.130;8.158;2023-02-14T13:33:55;27.50;;;13.17;;
71187;SDS011;58893;53.130;8.158;2023-02-14T13:36:24;29.27;;;13.40;;
71187;SDS011;58893;53.130;8.158;2023-02-14T13:38:53;30.00;;;13.87;;
71187;SDS011;58893;53.130;8.158;2023-02-14T13:41:20;26.00;;;13.50;;
71187;SDS011;58893;53.130;8.158;2023-02-14T13:46:20;32.20;;;14.00;;
71187;SDS011;58893;53.130;8.158;2023-02-14T13:51:56;29.27;;;12.60;;
71187;SDS011;58893;53.130;8.158;2023-02-14T13:56:59;25.67;;;13.10;;
71187;SDS011;58893;53.130;8.158;2023-02-14T13:59:31;23.20;;;11.00;;
71187;SDS011;58893;53.130;8.158;2023-02-14T14:04:51;28.90;;;13.27;;
71187;SDS011;58893;53.130;8.158;2023-02-14T14:07:19;25.57;;;10.80;;
71187;SDS011;58893;53.130;8.158;2023-02-14T14:17:29;27.60;;;13.60;;
71187;SDS011;58893;53.130;8.158;2023-02-14T14:19:55;25.27;;;11.90;;
71187;SDS011;58893;53.130;8.158;2023-02-14T14:22:22;27.90;;;13.57;;
71187;SDS011;58893;53.130;8.158;2023-02-14T14:24:52;27.77;;;13.50;;
71187;SDS011;58893;53.130;8.158;2023-02-14T14:30:19;29.23;;;12.80;;
71187;SDS011;58893;53.130;8.158;2023-02-14T14:32:49;33.37;;;15.37;;
71187;SDS011;58893;53.130;8.158;2023-02-14T14:35:22;59.50;;;19.70;;
71187;SDS011;58893;53.130;8.158;2023-02-14T14:37:50;39.63;;;16.40;;
71187;SDS011;58893;53.130;8.158;2023-02-14T14:40:26;31.73;;;13.20;;
71187;SDS011;58893;53.130;8.158;2023-02-14T14:43:00;48.53;;;20.00;;
71187;SDS011;58893;53.130;8.158;2023-02-14T14:45:33;33.10;;;16.00;;
71187;SDS011;58893;53.130;8.158;2023-02-14T14:48:01;24.67;;;12.03;;
71187;SDS011;58893;53.130;8.158;2023-02-14T14:50:34;22.70;;;12.87;;
71187;SDS011;58893;53.130;8.158;2023-02-14T14:53:01;24.57;;;10.70;;
71187;SDS011;58893;53.130;8.158;2023-02-14T14:55:33;23.67;;;12.73;;
71187;SDS011;58893;53.130;8.158;2023-02-14T14:58:03;26.23;;;11.87;;
71187;SDS011;58893;53.130;8.158;2023-02-14T15:00:33;22.83;;;11.40;;
71187;SDS011;58893;53.130;8.158;2023-02-14T15:03:02;24.60;;;12.03;;
71187;SDS011;58893;53.130;8.158;2023-02-14T15:05:30;22.00;;;10.63;;
71187;SDS011;58893;53.130;8.158;2023-02-14T15:08:13;22.87;;;11.40;;
71187;SDS011;58893;53.130;8.158;2023-02-14T15:10:49;24.90;;;11.17;;
71187;SDS011;58893;53.130;8.158;2023-02-14T15:13:16;19.63;;;10.87;;
71187;SDS011;58893;53.130;8.158;2023-02-14T15:16:01;23.23;;;11.17;;
71187;SDS011;58893;53.130;8.158;2023-02-14T15:18:27;26.33;;;12.43;;
71187;SDS011;58893;53.130;8.158;2023-02-14T15:20:53;23.67;;;10.97;;
71187;SDS011;58893;53.130;8.158;2023-02-14T15:23:21;23.50;;;11.50;;
71187;SDS011;58893;53.130;8.158;2023-02-14T15:25:48;22.97;;;10.60;;
71187;SDS011;58893;53.130;8.158;2023-02-14T15:28:25;24.77;;;12.27;;
71187;SDS011;58893;53.130;8.158;2023-02-14T15:30:57;24.13;;;12.67;;
71187;SDS011;58893;53.130;8.158;2023-02-14T15:33:24;29.10;;;12.80;;
71187;SDS011;58893;53.130;8.158;2023-02-14T15:35:50;26.47;;;13.20;;
71187;SDS011;58893;53.130;8.158;2023-02-14T15:38:16;25.33;;;10.87;;
71187;SDS011;58893;53.130;8.158;2023-02-14T15:40:45;23.10;;;10.50;;
71187;SDS011;58893;53.130;8.158;2023-02-14T15:43:20;25.33;;;12.03;;
71187;SDS011;58893;53.130;8.158;2023-02-14T15:48:51;27.90;;;12.27;;
71187;SDS011;58893;53.130;8.158;2023-02-14T15:51:21;27.20;;;12.00;;
71187;SDS011;58893;53.130;8.158;2023-02-14T15:53:56;32.90;;;10.67;;
71187;SDS011;58893;53.130;8.158;2023-02-14T16:04:26;23.17;;;11.20;;
71187;SDS011;58893;53.130;8.158;2023-02-14T16:09:47;23.33;;;11.67;;
71187;SDS011;58893;53.130;8.158;2023-02-14T16:15:37;23.67;;;11.47;;
71187;SDS011;58893;53.130;8.158;2023-02-14T16:17:45;24.03;;;10.87;;
71187;SDS011;58893;53.130;8.158;2023-02-14T16:20:21;28.27;;;11.87;;
71187;SDS011;58893;53.130;8.158;2023-02-14T16:22:52;22.93;;;11.13;;
71187;SDS011;58893;53.130;8.158;2023-02-14T16:25:39;22.00;;;10.87;;
71187;SDS011;58893;53.130;8.158;2023-02-14T16:28:05;22.50;;;10.00;;
71187;SDS011;58893;53.130;8.158;2023-02-14T16:30:30;24.00;;;13.00;;
71187;SDS011;58893;53.130;8.158;2023-02-14T16:32:56;26.67;;;12.57;;
71187;SDS011;58893;53.130;8.158;2023-02-14T16:35:22;30.27;;;12.83;;
71187;SDS011;58893;53.130;8.158;2023-02-14T16:37:48;22.67;;;12.00;;
71187;SDS011;58893;53.130;8.158;2023-02-14T16:40:23;24.03;;;12.50;;
71187;SDS011;58893;53.130;8.158;2023-02-14T16:42:51;25.20;;;11.33;;
71187;SDS011;58893;53.130;8.158;2023-02-14T16:45:17;28.33;;;11.90;;
71187;SDS011;58893;53.130;8.158;2023-02-14T16:47:46;28.10;;;11.73;;
71187;SDS011;58893;53.130;8.158;2023-02-14T16:50:13;24.50;;;11.07;;
71187;SDS011;58893;53.130;8.158;2023-02-14T16:52:39;23.93;;;11.73;;
71187;SDS011;58893;53.130;8.158;2023-02-14T16:55:09;25.23;;;12.77;;
71187;SDS011;58893;53.130;8.158;2023-02-14T16:57:40;27.33;;;12.40;;
71187;SDS011;58893;53.130;8.158;2023-02-14T17:00:08;22.40;;;11.67;;
71187;SDS011;58893;53.130;8.158;2023-02-14T17:02:35;21.80;;;10.27;;
71187;SDS011;58893;53.130;8.158;2023-02-14T17:05:01;22.03;;;10.77;;
71187;SDS011;58893;53.130;8.158;2023-02-14T17:07:28;33.50;;;12.50;;
71187;SDS011;58893;53.130;8.158;2023-02-14T17:09:58;23.13;;;11.17;;
71187;SDS011;58893;53.130;8.158;2023-02-14T17:12:30;24.80;;;10.83;;
71187;SDS011;58893;53.130;8.158;2023-02-14T17:14:59;20.13;;;11.30;;
71187;SDS011;58893;53.130;8.158;2023-02-14T17:17:32;26.57;;;13.57;;
71187;SDS011;58893;53.130;8.158;2023-02-14T17:19:59;29.57;;;15.33;;
71187;SDS011;58893;53.130;8.158;2023-02-14T17:22:26;22.03;;;11.60;;
71187;SDS011;58893;53.130;8.158;2023-02-14T17:24:51;23.17;;;11.50;;
71187;SDS011;58893;53.130;8.158;2023-02-14T17:27:17;20.37;;;11.10;;
71187;SDS011;58893;53.130;8.158;2023-02-14T17:29:42;61.90;;;23.90;;
71187;SDS011;58893;53.130;8.158;2023-02-14T17:32:12;43.20;;;20.03;;
71187;SDS011;58893;53.130;8.158;2023-02-14T17:34:38;27.93;;;13.43;;
71187;SDS011;58893;53.130;8.158;2023-02-14T17:37:04;27.47;;;13.67;;
71187;SDS011;58893;53.130;8.158;2023-02-14T17:39:30;28.73;;;14.47;;